sensor_id;sensor_type;location;lat;lon;timestamp;P1;durP1;ratioP1;P2;durP2;ratioP2
62535;SDS011;63050;47.514;18.920;2023-07-24T00:03:10;5.20;;;3.60;;
62535;SDS011;63050;47.514;18.920;2023-07-24T00:08:11;4.50;;;3.60;;
62535;SDS011;63050;47.514;18.920;2023-07-24T00:13:12;6.60;;;3.40;;
62535;SDS011;63050;47.514;18.920;2023-07-24T00:18:12;4.80;;;3.40;;
62535;SDS011;63050;47.514;18.920;2023-07-24T00:23:13;4.90;;;3.40;;
62535;SDS011;63050;47.514;18.920;2023-07-24T00:28:14;4.60;;;3.60;;
62535;SDS011;63050;47.514;18.920;2023-07-24T00:33:15;5.30;;;3.40;;
62535;SDS011;63050;47.514;18.920;2023-07-24T00:38:16;4.30;;;3.50;;
62535;SDS011;63050;47.514;18.920;2023-07-24T00:43:17;5.10;;;3.40;;
62535;SDS011;63050;47.514;18.920;2023-07-24T00:48:17;6.20;;;3.70;;
62535;SDS011;63050;47.514;18.920;2023-07-24T00:53:18;6.00;;;4.00;;
62535;SDS011;63050;47.514;18.920;2023-07-24T00:58:20;7.20;;;4.30;;
62535;SDS011;63050;47.514;18.920;2023-07-24T01:03:22;7.50;;;4.20;;
62535;SDS011;63050;47.514;18.920;2023-07-24T01:08:28;8.80;;;3.80;;
62535;SDS011;63050;47.514;18.920;2023-07-24T01:13:31;5.30;;;3.50;;
62535;SDS011;63050;47.514;18.920;2023-07-24T01:18:33;4.50;;;3.30;;
62535;SDS011;63050;47.514;18.920;2023-07-24T01:29:06;4.80;;;3.50;;
62535;SDS011;63050;47.514;18.920;2023-07-24T01:34:07;6.00;;;3.50;;
62535;SDS011;63050;47.514;18.920;2023-07-24T01:39:08;5.50;;;3.70;;
62535;SDS011;63050;47.514;18.920;2023-07-24T01:44:09;5.20;;;3.60;;
62535;SDS011;63050;47.514;18.920;2023-07-24T01:49:10;4.90;;;3.30;;
62535;SDS011;63050;47.514;18.920;2023-07-24T01:54:11;6.70;;;3.90;;
62535;SDS011;63050;47.514;18.920;2023-07-24T01:59:12;4.70;;;3.80;;
62535;SDS011;63050;47.514;18.920;2023-07-24T02:04:12;5.30;;;4.00;;
62535;SDS011;63050;47.514;18.920;2023-07-24T02:09:15;6.40;;;3.60;;
62535;SDS011;63050;47.514;18.920;2023-07-24T02:14:17;6.10;;;4.10;;
62535;SDS011;63050;47.514;18.920;2023-07-24T02:19:18;6.90;;;3.90;;
62535;SDS011;63050;47.514;18.920;2023-07-24T02:24:19;6.10;;;3.90;;
62535;SDS011;63050;47.514;18.920;2023-07-24T02:29:20;6.60;;;3.70;;
62535;SDS011;63050;47.514;18.920;2023-07-24T02:34:24;5.20;;;3.70;;
62535;SDS011;63050;47.514;18.920;2023-07-24T02:39:26;5.40;;;3.50;;
62535;SDS011;63050;47.514;18.920;2023-07-24T02:44:28;5.80;;;3.60;;
62535;SDS011;63050;47.514;18.920;2023-07-24T02:49:29;4.30;;;3.30;;
62535;SDS011;63050;47.514;18.920;2023-07-24T02:54:30;4.90;;;3.30;;
62535;SDS011;63050;47.514;18.920;2023-07-24T02:59:31;4.80;;;3.70;;
62535;SDS011;63050;47.514;18.920;2023-07-24T03:04:32;4.60;;;3.60;;
62535;SDS011;63050;47.514;18.920;2023-07-24T03:09:33;4.50;;;3.40;;
62535;SDS011;63050;47.514;18.920;2023-07-24T03:14:34;5.40;;;3.80;;
62535;SDS011;63050;47.514;18.920;2023-07-24T03:19:35;5.40;;;3.60;;
62535;SDS011;63050;47.514;18.920;2023-07-24T03:24:35;5.70;;;4.00;;
62535;SDS011;63050;47.514;18.920;2023-07-24T03:29:36;4.50;;;3.50;;
62535;SDS011;63050;47.514;18.920;2023-07-24T03:34:37;4.90;;;3.80;;
62535;SDS011;63050;47.514;18.920;2023-07-24T03:39:39;4.90;;;3.90;;
62535;SDS011;63050;47.514;18.920;2023-07-24T03:44:40;4.90;;;3.10;;
62535;SDS011;63050;47.514;18.920;2023-07-24T03:49:41;6.00;;;3.80;;
62535;SDS011;63050;47.514;18.920;2023-07-24T03:54:42;5.70;;;3.60;;
62535;SDS011;63050;47.514;18.920;2023-07-24T03:59:42;4.50;;;3.80;;
62535;SDS011;63050;47.514;18.920;2023-07-24T04:04:43;4.50;;;3.30;;
62535;SDS011;63050;47.514;18.920;2023-07-24T04:09:44;6.00;;;3.60;;
62535;SDS011;63050;47.514;18.920;2023-07-24T04:14:45;5.00;;;4.10;;
62535;SDS011;63050;47.514;18.920;2023-07-24T04:19:46;5.50;;;3.80;;
62535;SDS011;63050;47.514;18.920;2023-07-24T04:24:46;6.00;;;4.40;;
62535;SDS011;63050;47.514;18.920;2023-07-24T04:29:47;5.40;;;3.70;;
62535;SDS011;63050;47.514;18.920;2023-07-24T04:34:48;5.50;;;3.90;;
62535;SDS011;63050;47.514;18.920;2023-07-24T04:39:49;5.70;;;4.20;;
62535;SDS011;63050;47.514;18.920;2023-07-24T04:44:50;6.40;;;4.90;;
62535;SDS011;63050;47.514;18.920;2023-07-24T04:49:53;6.00;;;5.00;;
62535;SDS011;63050;47.514;18.920;2023-07-24T04:54:55;6.60;;;4.10;;
62535;SDS011;63050;47.514;18.920;2023-07-24T04:59:56;6.00;;;3.90;;
62535;SDS011;63050;47.514;18.920;2023-07-24T05:04:57;6.30;;;5.00;;
62535;SDS011;63050;47.514;18.920;2023-07-24T05:09:58;6.20;;;4.90;;
62535;SDS011;63050;47.514;18.920;2023-07-24T05:14:59;7.20;;;4.50;;
62535;SDS011;63050;47.514;18.920;2023-07-24T05:20:00;8.40;;;4.80;;
62535;SDS011;63050;47.514;18.920;2023-07-24T05:25:01;5.80;;;4.70;;
62535;SDS011;63050;47.514;18.920;2023-07-24T05:30:02;6.10;;;4.50;;
62535;SDS011;63050;47.514;18.920;2023-07-24T05:35:03;7.00;;;5.10;;
62535;SDS011;63050;47.514;18.920;2023-07-24T05:40:04;9.70;;;5.50;;
62535;SDS011;63050;47.514;18.920;2023-07-24T05:45:06;10.90;;;5.90;;
62535;SDS011;63050;47.514;18.920;2023-07-24T05:50:07;8.20;;;4.70;;
62535;SDS011;63050;47.514;18.920;2023-07-24T05:55:08;7.10;;;5.30;;
62535;SDS011;63050;47.514;18.920;2023-07-24T06:00:10;6.10;;;4.90;;
62535;SDS011;63050;47.514;18.920;2023-07-24T06:05:13;5.60;;;4.50;;
62535;SDS011;63050;47.514;18.920;2023-07-24T06:10:14;7.50;;;5.30;;
62535;SDS011;63050;47.514;18.920;2023-07-24T06:15:15;6.80;;;5.00;;
62535;SDS011;63050;47.514;18.920;2023-07-24T06:20:16;7.00;;;4.90;;
62535;SDS011;63050;47.514;18.920;2023-07-24T06:25:17;8.80;;;4.90;;
62535;SDS011;63050;47.514;18.920;2023-07-24T06:30:18;8.40;;;5.30;;
62535;SDS011;63050;47.514;18.920;2023-07-24T06:35:20;6.70;;;5.30;;
62535;SDS011;63050;47.514;18.920;2023-07-24T06:40:21;7.50;;;5.30;;
62535;SDS011;63050;47.514;18.920;2023-07-24T06:45:22;8.00;;;4.90;;
62535;SDS011;63050;47.514;18.920;2023-07-24T06:50:23;7.40;;;5.50;;
62535;SDS011;63050;47.514;18.920;2023-07-24T06:55:24;7.80;;;4.90;;
62535;SDS011;63050;47.514;18.920;2023-07-24T07:00:25;7.30;;;5.30;;
62535;SDS011;63050;47.514;18.920;2023-07-24T07:05:26;6.60;;;5.10;;
62535;SDS011;63050;47.514;18.920;2023-07-24T07:10:26;8.20;;;4.90;;
62535;SDS011;63050;47.514;18.920;2023-07-24T07:15:27;9.00;;;5.10;;
62535;SDS011;63050;47.514;18.920;2023-07-24T07:20:28;7.50;;;5.30;;
62535;SDS011;63050;47.514;18.920;2023-07-24T07:25:29;8.70;;;5.70;;
62535;SDS011;63050;47.514;18.920;2023-07-24T07:30:30;7.30;;;5.10;;
62535;SDS011;63050;47.514;18.920;2023-07-24T07:35:34;6.50;;;5.10;;
62535;SDS011;63050;47.514;18.920;2023-07-24T07:40:36;6.60;;;5.50;;
62535;SDS011;63050;47.514;18.920;2023-07-24T07:45:38;8.80;;;5.80;;
62535;SDS011;63050;47.514;18.920;2023-07-24T07:50:39;7.10;;;4.90;;
62535;SDS011;63050;47.514;18.920;2023-07-24T07:55:40;10.50;;;6.30;;
62535;SDS011;63050;47.514;18.920;2023-07-24T08:00:41;7.10;;;5.50;;
62535;SDS011;63050;47.514;18.920;2023-07-24T08:05:42;7.30;;;5.30;;
62535;SDS011;63050;47.514;18.920;2023-07-24T08:10:42;7.20;;;5.40;;
62535;SDS011;63050;47.514;18.920;2023-07-24T08:15:43;8.30;;;5.20;;
62535;SDS011;63050;47.514;18.920;2023-07-24T08:20:44;9.50;;;5.90;;
62535;SDS011;63050;47.514;18.920;2023-07-24T08:25:54;9.70;;;6.20;;
62535;SDS011;63050;47.514;18.920;2023-07-24T08:30:57;9.40;;;6.10;;
62535;SDS011;63050;47.514;18.920;2023-07-24T08:36:08;7.00;;;5.80;;
62535;SDS011;63050;47.514;18.920;2023-07-24T08:41:10;10.70;;;6.10;;
62535;SDS011;63050;47.514;18.920;2023-07-24T08:46:12;10.40;;;6.20;;
62535;SDS011;63050;47.514;18.920;2023-07-24T08:51:14;9.60;;;5.50;;
62535;SDS011;63050;47.514;18.920;2023-07-24T08:56:16;7.20;;;5.70;;
62535;SDS011;63050;47.514;18.920;2023-07-24T09:01:17;8.30;;;5.60;;
62535;SDS011;63050;47.514;18.920;2023-07-24T09:06:17;7.80;;;6.30;;
62535;SDS011;63050;47.514;18.920;2023-07-24T09:11:18;10.20;;;6.40;;
62535;SDS011;63050;47.514;18.920;2023-07-24T09:16:26;7.80;;;6.20;;
62535;SDS011;63050;47.514;18.920;2023-07-24T09:21:27;11.50;;;6.60;;
62535;SDS011;63050;47.514;18.920;2023-07-24T09:26:29;10.80;;;6.40;;
62535;SDS011;63050;47.514;18.920;2023-07-24T09:31:34;8.80;;;7.30;;
62535;SDS011;63050;47.514;18.920;2023-07-24T09:36:37;8.60;;;5.60;;
62535;SDS011;63050;47.514;18.920;2023-07-24T09:41:39;9.10;;;6.40;;
62535;SDS011;63050;47.514;18.920;2023-07-24T09:46:41;9.90;;;6.60;;
62535;SDS011;63050;47.514;18.920;2023-07-24T09:51:43;10.50;;;6.50;;
62535;SDS011;63050;47.514;18.920;2023-07-24T09:56:48;7.60;;;5.60;;
62535;SDS011;63050;47.514;18.920;2023-07-24T10:01:50;11.90;;;5.90;;
62535;SDS011;63050;47.514;18.920;2023-07-24T10:06:52;10.20;;;7.00;;
62535;SDS011;63050;47.514;18.920;2023-07-24T10:11:53;13.20;;;7.20;;
62535;SDS011;63050;47.514;18.920;2023-07-24T10:16:55;9.40;;;6.70;;
62535;SDS011;63050;47.514;18.920;2023-07-24T10:21:57;9.60;;;7.30;;
62535;SDS011;63050;47.514;18.920;2023-07-24T10:26:57;11.60;;;6.80;;
62535;SDS011;63050;47.514;18.920;2023-07-24T10:31:58;8.20;;;6.20;;
62535;SDS011;63050;47.514;18.920;2023-07-24T10:37:02;9.80;;;7.00;;
62535;SDS011;63050;47.514;18.920;2023-07-24T10:42:07;10.40;;;6.10;;
62535;SDS011;63050;47.514;18.920;2023-07-24T10:47:09;12.20;;;6.60;;
62535;SDS011;63050;47.514;18.920;2023-07-24T10:52:10;10.70;;;6.90;;
62535;SDS011;63050;47.514;18.920;2023-07-24T10:57:11;8.10;;;6.20;;
62535;SDS011;63050;47.514;18.920;2023-07-24T11:02:12;9.60;;;6.20;;
62535;SDS011;63050;47.514;18.920;2023-07-24T11:07:13;10.60;;;6.30;;
62535;SDS011;63050;47.514;18.920;2023-07-24T11:12:15;10.30;;;5.60;;
62535;SDS011;63050;47.514;18.920;2023-07-24T11:17:17;9.70;;;5.60;;
62535;SDS011;63050;47.514;18.920;2023-07-24T11:22:21;9.00;;;6.20;;
62535;SDS011;63050;47.514;18.920;2023-07-24T11:27:22;9.70;;;6.40;;
62535;SDS011;63050;47.514;18.920;2023-07-24T11:32:23;11.10;;;6.20;;
62535;SDS011;63050;47.514;18.920;2023-07-24T11:37:23;9.00;;;6.00;;
62535;SDS011;63050;47.514;18.920;2023-07-24T11:42:27;11.20;;;6.30;;
62535;SDS011;63050;47.514;18.920;2023-07-24T11:47:29;9.80;;;6.70;;
62535;SDS011;63050;47.514;18.920;2023-07-24T11:52:39;10.50;;;6.60;;
62535;SDS011;63050;47.514;18.920;2023-07-24T11:57:41;7.70;;;5.80;;
62535;SDS011;63050;47.514;18.920;2023-07-24T12:02:42;8.20;;;5.50;;
62535;SDS011;63050;47.514;18.920;2023-07-24T12:07:43;7.70;;;5.40;;
62535;SDS011;63050;47.514;18.920;2023-07-24T12:12:46;8.90;;;5.50;;
62535;SDS011;63050;47.514;18.920;2023-07-24T12:17:47;8.70;;;6.00;;
62535;SDS011;63050;47.514;18.920;2023-07-24T12:22:48;8.50;;;6.30;;
62535;SDS011;63050;47.514;18.920;2023-07-24T12:27:49;10.00;;;5.70;;
62535;SDS011;63050;47.514;18.920;2023-07-24T12:32:50;11.90;;;6.00;;
62535;SDS011;63050;47.514;18.920;2023-07-24T12:37:51;9.00;;;6.70;;
62535;SDS011;63050;47.514;18.920;2023-07-24T12:42:52;11.90;;;5.70;;
62535;SDS011;63050;47.514;18.920;2023-07-24T12:47:53;11.20;;;5.80;;
62535;SDS011;63050;47.514;18.920;2023-07-24T12:52:55;8.70;;;6.10;;
62535;SDS011;63050;47.514;18.920;2023-07-24T12:57:56;8.30;;;5.50;;
62535;SDS011;63050;47.514;18.920;2023-07-24T13:02:57;10.20;;;6.20;;
62535;SDS011;63050;47.514;18.920;2023-07-24T13:07:58;9.10;;;6.00;;
62535;SDS011;63050;47.514;18.920;2023-07-24T13:12:59;9.20;;;5.80;;
62535;SDS011;63050;47.514;18.920;2023-07-24T13:18:01;7.80;;;5.80;;
62535;SDS011;63050;47.514;18.920;2023-07-24T13:23:02;9.00;;;6.20;;
62535;SDS011;63050;47.514;18.920;2023-07-24T13:28:03;10.00;;;6.80;;
62535;SDS011;63050;47.514;18.920;2023-07-24T13:33:04;13.90;;;6.50;;
62535;SDS011;63050;47.514;18.920;2023-07-24T13:38:05;12.70;;;8.10;;
62535;SDS011;63050;47.514;18.920;2023-07-24T13:43:08;10.00;;;7.10;;
62535;SDS011;63050;47.514;18.920;2023-07-24T13:48:09;10.40;;;7.70;;
62535;SDS011;63050;47.514;18.920;2023-07-24T13:53:10;11.90;;;7.80;;
62535;SDS011;63050;47.514;18.920;2023-07-24T13:58:12;11.50;;;7.70;;
62535;SDS011;63050;47.514;18.920;2023-07-24T14:03:14;11.80;;;8.10;;
62535;SDS011;63050;47.514;18.920;2023-07-24T14:08:15;13.10;;;8.30;;
62535;SDS011;63050;47.514;18.920;2023-07-24T14:13:16;11.60;;;8.40;;
62535;SDS011;63050;47.514;18.920;2023-07-24T14:18:17;13.50;;;8.70;;
62535;SDS011;63050;47.514;18.920;2023-07-24T14:23:18;12.60;;;7.80;;
62535;SDS011;63050;47.514;18.920;2023-07-24T14:28:20;10.70;;;8.20;;
62535;SDS011;63050;47.514;18.920;2023-07-24T14:33:21;12.20;;;7.90;;
62535;SDS011;63050;47.514;18.920;2023-07-24T14:38:22;12.60;;;8.40;;
62535;SDS011;63050;47.514;18.920;2023-07-24T14:43:24;13.50;;;8.80;;
62535;SDS011;63050;47.514;18.920;2023-07-24T14:48:25;12.60;;;8.50;;
62535;SDS011;63050;47.514;18.920;2023-07-24T14:53:27;16.60;;;8.70;;
62535;SDS011;63050;47.514;18.920;2023-07-24T14:58:28;12.40;;;8.20;;
62535;SDS011;63050;47.514;18.920;2023-07-24T15:03:29;12.70;;;8.10;;
62535;SDS011;63050;47.514;18.920;2023-07-24T15:08:30;12.80;;;7.70;;
62535;SDS011;63050;47.514;18.920;2023-07-24T15:13:32;13.00;;;7.80;;
62535;SDS011;63050;47.514;18.920;2023-07-24T15:18:33;13.30;;;7.80;;
62535;SDS011;63050;47.514;18.920;2023-07-24T15:23:35;11.20;;;7.60;;
62535;SDS011;63050;47.514;18.920;2023-07-24T15:28:36;14.30;;;8.50;;
62535;SDS011;63050;47.514;18.920;2023-07-24T15:33:38;13.20;;;8.80;;
62535;SDS011;63050;47.514;18.920;2023-07-24T15:38:39;13.50;;;7.80;;
62535;SDS011;63050;47.514;18.920;2023-07-24T15:43:41;12.40;;;7.50;;
62535;SDS011;63050;47.514;18.920;2023-07-24T15:48:42;13.60;;;8.10;;
62535;SDS011;63050;47.514;18.920;2023-07-24T15:53:43;14.10;;;8.10;;
62535;SDS011;63050;47.514;18.920;2023-07-24T15:58:46;15.80;;;8.40;;
62535;SDS011;63050;47.514;18.920;2023-07-24T16:03:49;14.40;;;8.70;;
62535;SDS011;63050;47.514;18.920;2023-07-24T16:08:50;14.70;;;7.80;;
62535;SDS011;63050;47.514;18.920;2023-07-24T16:13:51;13.00;;;7.40;;
62535;SDS011;63050;47.514;18.920;2023-07-24T16:24:16;17.20;;;9.00;;
62535;SDS011;63050;47.514;18.920;2023-07-24T16:29:17;11.30;;;7.30;;
62535;SDS011;63050;47.514;18.920;2023-07-24T16:34:20;14.40;;;7.30;;
62535;SDS011;63050;47.514;18.920;2023-07-24T16:39:21;13.90;;;8.30;;
62535;SDS011;63050;47.514;18.920;2023-07-24T16:44:23;13.80;;;7.80;;
62535;SDS011;63050;47.514;18.920;2023-07-24T16:49:24;11.10;;;7.10;;
62535;SDS011;63050;47.514;18.920;2023-07-24T16:54:26;11.30;;;6.60;;
62535;SDS011;63050;47.514;18.920;2023-07-24T16:59:27;10.40;;;7.00;;
62535;SDS011;63050;47.514;18.920;2023-07-24T17:04:29;15.10;;;7.50;;
62535;SDS011;63050;47.514;18.920;2023-07-24T17:09:31;15.70;;;7.80;;
62535;SDS011;63050;47.514;18.920;2023-07-24T17:14:34;14.70;;;7.30;;
62535;SDS011;63050;47.514;18.920;2023-07-24T17:19:35;11.00;;;6.40;;
62535;SDS011;63050;47.514;18.920;2023-07-24T17:24:36;11.00;;;6.70;;
62535;SDS011;63050;47.514;18.920;2023-07-24T17:29:38;12.30;;;7.00;;
62535;SDS011;63050;47.514;18.920;2023-07-24T17:34:39;12.30;;;6.60;;
62535;SDS011;63050;47.514;18.920;2023-07-24T17:39:42;13.90;;;7.50;;
62535;SDS011;63050;47.514;18.920;2023-07-24T17:44:44;12.50;;;6.90;;
62535;SDS011;63050;47.514;18.920;2023-07-24T17:49:45;10.80;;;6.40;;
62535;SDS011;63050;47.514;18.920;2023-07-24T17:54:48;11.40;;;7.00;;
62535;SDS011;63050;47.514;18.920;2023-07-24T17:59:49;12.20;;;6.50;;
62535;SDS011;63050;47.514;18.920;2023-07-24T18:04:51;12.10;;;6.70;;
62535;SDS011;63050;47.514;18.920;2023-07-24T18:09:53;13.10;;;6.90;;
62535;SDS011;63050;47.514;18.920;2023-07-24T18:14:54;12.60;;;6.70;;
62535;SDS011;63050;47.514;18.920;2023-07-24T18:19:56;11.40;;;6.40;;
62535;SDS011;63050;47.514;18.920;2023-07-24T18:24:57;12.70;;;7.00;;
62535;SDS011;63050;47.514;18.920;2023-07-24T18:29:59;9.90;;;6.20;;
62535;SDS011;63050;47.514;18.920;2023-07-24T18:35:03;12.90;;;6.80;;
62535;SDS011;63050;47.514;18.920;2023-07-24T18:40:05;13.00;;;6.70;;
62535;SDS011;63050;47.514;18.920;2023-07-24T18:45:07;15.30;;;6.50;;
62535;SDS011;63050;47.514;18.920;2023-07-24T18:50:09;11.90;;;6.40;;
62535;SDS011;63050;47.514;18.920;2023-07-24T18:55:11;11.10;;;6.80;;
62535;SDS011;63050;47.514;18.920;2023-07-24T19:00:13;14.70;;;7.30;;
62535;SDS011;63050;47.514;18.920;2023-07-24T19:05:17;12.60;;;6.80;;
62535;SDS011;63050;47.514;18.920;2023-07-24T19:10:20;12.40;;;6.60;;
62535;SDS011;63050;47.514;18.920;2023-07-24T19:15:22;13.30;;;6.30;;
62535;SDS011;63050;47.514;18.920;2023-07-24T19:20:23;12.40;;;6.20;;
62535;SDS011;63050;47.514;18.920;2023-07-24T19:25:24;11.20;;;5.60;;
62535;SDS011;63050;47.514;18.920;2023-07-24T19:30:27;10.80;;;6.10;;
62535;SDS011;63050;47.514;18.920;2023-07-24T19:35:29;8.90;;;5.80;;
62535;SDS011;63050;47.514;18.920;2023-07-24T19:40:31;9.80;;;6.00;;
62535;SDS011;63050;47.514;18.920;2023-07-24T19:45:39;9.30;;;5.50;;
62535;SDS011;63050;47.514;18.920;2023-07-24T19:50:49;11.30;;;5.80;;
62535;SDS011;63050;47.514;18.920;2023-07-24T19:55:52;13.90;;;7.00;;
62535;SDS011;63050;47.514;18.920;2023-07-24T20:00:54;12.30;;;6.10;;
62535;SDS011;63050;47.514;18.920;2023-07-24T20:05:57;11.40;;;6.20;;
62535;SDS011;63050;47.514;18.920;2023-07-24T20:11:01;15.30;;;6.60;;
62535;SDS011;63050;47.514;18.920;2023-07-24T20:16:04;10.50;;;6.00;;
62535;SDS011;63050;47.514;18.920;2023-07-24T20:21:05;14.40;;;6.80;;
62535;SDS011;63050;47.514;18.920;2023-07-24T20:26:07;12.00;;;6.40;;
62535;SDS011;63050;47.514;18.920;2023-07-24T20:31:08;14.70;;;6.80;;
62535;SDS011;63050;47.514;18.920;2023-07-24T20:36:10;12.90;;;6.40;;
62535;SDS011;63050;47.514;18.920;2023-07-24T20:41:13;12.40;;;6.40;;
62535;SDS011;63050;47.514;18.920;2023-07-24T20:46:15;11.60;;;6.30;;
62535;SDS011;63050;47.514;18.920;2023-07-24T20:51:20;12.90;;;6.10;;
62535;SDS011;63050;47.514;18.920;2023-07-24T20:56:22;14.00;;;6.10;;
62535;SDS011;63050;47.514;18.920;2023-07-24T21:01:24;13.20;;;6.40;;
62535;SDS011;63050;47.514;18.920;2023-07-24T21:06:26;12.60;;;6.50;;
62535;SDS011;63050;47.514;18.920;2023-07-24T21:11:27;12.80;;;6.40;;
62535;SDS011;63050;47.514;18.920;2023-07-24T21:16:28;10.30;;;6.40;;
62535;SDS011;63050;47.514;18.920;2023-07-24T21:21:28;11.20;;;6.00;;
62535;SDS011;63050;47.514;18.920;2023-07-24T21:26:29;13.20;;;6.50;;
62535;SDS011;63050;47.514;18.920;2023-07-24T21:31:30;11.90;;;6.50;;
62535;SDS011;63050;47.514;18.920;2023-07-24T21:36:31;10.60;;;6.40;;
62535;SDS011;63050;47.514;18.920;2023-07-24T21:41:32;10.40;;;6.90;;
62535;SDS011;63050;47.514;18.920;2023-07-24T21:46:34;12.00;;;6.60;;
62535;SDS011;63050;47.514;18.920;2023-07-24T21:51:35;9.40;;;5.70;;
62535;SDS011;63050;47.514;18.920;2023-07-24T21:56:36;9.50;;;5.80;;
62535;SDS011;63050;47.514;18.920;2023-07-24T22:01:37;9.90;;;6.10;;
62535;SDS011;63050;47.514;18.920;2023-07-24T22:06:37;11.60;;;7.20;;
62535;SDS011;63050;47.514;18.920;2023-07-24T22:11:38;9.90;;;6.30;;
62535;SDS011;63050;47.514;18.920;2023-07-24T22:16:39;12.00;;;6.80;;
62535;SDS011;63050;47.514;18.920;2023-07-24T22:21:40;9.80;;;6.30;;
62535;SDS011;63050;47.514;18.920;2023-07-24T22:26:41;11.90;;;7.10;;
62535;SDS011;63050;47.514;18.920;2023-07-24T22:31:42;12.50;;;6.60;;
62535;SDS011;63050;47.514;18.920;2023-07-24T22:36:42;8.60;;;6.50;;
62535;SDS011;63050;47.514;18.920;2023-07-24T22:41:44;10.50;;;5.70;;
62535;SDS011;63050;47.514;18.920;2023-07-24T22:46:44;11.60;;;6.00;;
62535;SDS011;63050;47.514;18.920;2023-07-24T22:51:45;9.30;;;5.70;;
62535;SDS011;63050;47.514;18.920;2023-07-24T22:56:46;11.60;;;5.50;;
62535;SDS011;63050;47.514;18.920;2023-07-24T23:01:47;9.70;;;5.20;;
62535;SDS011;63050;47.514;18.920;2023-07-24T23:06:50;8.60;;;5.20;;
62535;SDS011;63050;47.514;18.920;2023-07-24T23:11:51;13.90;;;5.90;;
62535;SDS011;63050;47.514;18.920;2023-07-24T23:16:52;10.40;;;5.70;;
62535;SDS011;63050;47.514;18.920;2023-07-24T23:21:53;12.70;;;5.40;;
62535;SDS011;63050;47.514;18.920;2023-07-24T23:26:54;9.70;;;5.50;;
62535;SDS011;63050;47.514;18.920;2023-07-24T23:31:55;8.30;;;4.80;;
62535;SDS011;63050;47.514;18.920;2023-07-24T23:36:56;8.10;;;4.80;;
62535;SDS011;63050;47.514;18.920;2023-07-24T23:41:56;9.40;;;5.40;;
62535;SDS011;63050;47.514;18.920;2023-07-24T23:46:57;8.40;;;4.80;;
62535;SDS011;63050;47.514;18.920;2023-07-24T23:51:58;10.20;;;5.00;;
62535;SDS011;63050;47.514;18.920;2023-07-24T23:56:59;11.00;;;5.30;;
